Time;durP1;ratioP1;P1;durP2;ratioP2;P2;SDS_P1;SDS_P2;PMS_P1;PMS_P2;Temp;Humidity;BMP_temperature;BMP_pressure;BME280_temperature;BME280_humidity;BME280_pressure;Samples;Min_cycle;Max_cycle;Signal;HPM_P1;HPM_P2
2022/01/04 00:02:01;;;;;;;2.27;0.80;;;10.80;99.90;;;;;;1895145;75;21162;-71
2022/01/04 00:04:27;;;;;;;4.25;1.00;;;10.70;99.90;;;;;;1903439;75;21161;-73
2022/01/04 00:06:55;;;;;;;2.67;0.78;;;10.80;99.90;;;;;;1903367;75;21126;-73
2022/01/04 00:09:21;;;;;;;1.15;0.88;;;10.80;99.90;;;;;;1903386;75;21558;-74
2022/01/04 00:14:15;;;;;;;2.20;0.82;;;10.80;99.90;;;;;;1895756;75;21199;-74
2022/01/04 00:16:41;;;;;;;1.60;0.75;;;10.80;99.90;;;;;;1899142;75;21046;-74
2022/01/04 00:19:07;;;;;;;2.65;0.72;;;10.80;99.90;;;;;;1898040;75;21162;-74
2022/01/04 00:21:33;;;;;;;1.50;0.82;;;10.80;99.90;;;;;;1901728;75;21097;-74
2022/01/04 00:24:00;;;;;;;1.47;0.82;;;10.80;99.90;;;;;;1898937;75;21105;-74
2022/01/04 00:26:26;;;;;;;1.20;0.60;;;10.80;99.90;;;;;;1903275;75;21101;-74
2022/01/04 00:28:52;;;;;;;2.60;0.90;;;10.90;99.90;;;;;;1904513;74;21092;-73
2022/01/04 00:31:18;;;;;;;0.70;0.70;;;10.80;99.90;;;;;;1904181;75;21088;-73
2022/01/04 00:33:44;;;;;;;1.12;0.50;;;10.80;99.90;;;;;;1900054;75;21158;-75
2022/01/04 00:36:10;;;;;;;1.75;0.93;;;10.80;99.90;;;;;;1901878;75;21060;-74
2022/01/04 00:38:36;;;;;;;3.67;0.70;;;10.80;99.90;;;;;;1910054;75;21198;-73
2022/01/04 00:41:03;;;;;;;1.55;0.80;;;10.90;99.90;;;;;;1903557;75;21142;-74
2022/01/04 00:43:29;;;;;;;1.77;0.82;;;10.80;99.90;;;;;;1902687;75;21076;-74
2022/01/04 00:45:55;;;;;;;2.12;0.62;;;10.80;99.90;;;;;;1900366;75;21118;-74
2022/01/04 00:50:49;;;;;;;2.17;0.82;;;10.90;99.90;;;;;;1906833;75;21088;-74
2022/01/04 00:53:15;;;;;;;2.47;1.10;;;10.80;99.90;;;;;;1912305;75;21169;-72
2022/01/04 00:55:41;;;;;;;0.80;0.60;;;10.80;99.90;;;;;;1911524;75;21096;-72
2022/01/04 00:58:07;;;;;;;1.72;0.88;;;10.80;99.90;;;;;;1906038;75;21092;-72
2022/01/04 01:00:34;;;;;;;2.60;0.75;;;10.80;99.90;;;;;;1896216;75;21488;-73
2022/01/04 01:03:00;;;;;;;3.98;0.90;;;10.70;99.90;;;;;;1898532;75;21168;-73
2022/01/04 01:05:26;;;;;;;1.20;0.80;;;10.70;99.90;;;;;;1900769;75;21123;-73
2022/01/04 01:07:52;;;;;;;1.17;0.75;;;10.80;99.90;;;;;;1903527;75;21041;-72
2022/01/04 01:10:37;;;;;;;1.60;0.70;;;10.80;99.90;;;;;;1900091;75;21223;-72
2022/01/04 01:12:55;;;;;;;2.08;0.80;;;10.80;99.90;;;;;;1897553;75;21229;-73
2022/01/04 01:15:21;;;;;;;2.15;0.70;;;10.80;99.90;;;;;;1901629;75;21200;-73
2022/01/04 01:17:47;;;;;;;2.33;0.60;;;10.70;99.90;;;;;;1903151;75;21158;-72
2022/01/04 01:20:14;;;;;;;5.60;0.88;;;10.80;99.90;;;;;;1903493;73;21223;-72
2022/01/04 01:22:40;;;;;;;1.05;0.80;;;10.80;99.90;;;;;;1903437;75;21166;-73
2022/01/04 01:25:06;;;;;;;0.88;0.65;;;10.80;99.90;;;;;;1906204;74;21119;-73
2022/01/04 01:27:32;;;;;;;2.37;0.80;;;10.70;99.90;;;;;;1899508;75;21080;-73
2022/01/04 01:29:58;;;;;;;1.62;0.65;;;10.70;99.90;;;;;;1904368;75;21088;-72
2022/01/04 01:32:24;;;;;;;1.95;0.50;;;10.70;99.90;;;;;;1899935;75;21076;-73
2022/01/04 01:34:50;;;;;;;0.93;0.70;;;10.70;99.90;;;;;;1903393;75;21084;-73
2022/01/04 01:37:17;;;;;;;1.12;0.60;;;10.70;99.90;;;;;;1909598;75;21555;-72
2022/01/04 01:39:43;;;;;;;1.02;0.78;;;10.70;99.90;;;;;;1909218;75;21162;-72
2022/01/04 01:42:09;;;;;;;1.22;0.70;;;10.70;99.90;;;;;;1913790;75;21120;-72
2022/01/04 01:44:35;;;;;;;3.60;0.75;;;10.70;99.90;;;;;;1903313;75;21179;-72
2022/01/04 01:47:01;;;;;;;4.15;0.90;;;10.70;99.90;;;;;;1896926;75;21158;-72
2022/01/04 01:49:27;;;;;;;6.05;0.72;;;10.80;99.90;;;;;;1899508;75;21143;-73
2022/01/04 01:51:53;;;;;;;0.70;0.70;;;10.80;99.90;;;;;;1897573;75;21057;-72
2022/01/04 01:54:19;;;;;;;1.15;0.68;;;10.80;99.90;;;;;;1895866;75;21150;-72
2022/01/04 01:56:45;;;;;;;2.30;0.80;;;10.80;99.90;;;;;;1898504;75;21162;-72
2022/01/04 01:59:12;;;;;;;4.67;0.75;;;10.70;99.90;;;;;;1904780;75;21076;-73
2022/01/04 02:01:38;;;;;;;3.10;0.90;;;10.70;99.90;;;;;;1900252;75;21058;-72
2022/01/04 02:04:04;;;;;;;0.90;0.70;;;10.70;99.90;;;;;;1912125;74;21157;-72
2022/01/04 02:06:30;;;;;;;1.27;0.72;;;10.70;99.90;;;;;;1900745;75;21162;-72
2022/01/04 02:08:56;;;;;;;2.30;0.80;;;10.70;99.90;;;;;;1904414;75;21219;-72
2022/01/04 02:11:23;;;;;;;1.40;0.72;;;10.80;99.90;;;;;;1907302;75;21009;-72
2022/01/04 02:13:50;;;;;;;1.70;1.05;;;10.90;99.90;;;;;;1903462;75;21084;-72
2022/01/04 02:16:16;;;;;;;3.17;1.00;;;10.90;99.90;;;;;;1905578;75;21146;-72
2022/01/04 02:18:42;;;;;;;2.20;0.98;;;10.90;99.90;;;;;;1907110;75;21170;-72
2022/01/04 02:21:08;;;;;;;2.42;1.00;;;10.80;99.90;;;;;;1901696;75;21119;-72
2022/01/04 02:23:34;;;;;;;3.80;1.15;;;10.90;99.90;;;;;;1900159;75;21161;-73
2022/01/04 02:26:00;;;;;;;2.67;1.02;;;10.80;99.90;;;;;;1900961;75;21150;-73
2022/01/04 02:28:26;;;;;;;1.80;1.07;;;10.90;99.90;;;;;;1909418;75;21131;-72
2022/01/04 02:30:52;;;;;;;1.87;0.85;;;10.90;99.90;;;;;;1910551;75;21100;-72
2022/01/04 02:33:19;;;;;;;2.02;1.00;;;10.90;99.90;;;;;;1915752;75;21049;-71
2022/01/04 02:35:45;;;;;;;2.62;1.05;;;11.00;99.90;;;;;;1901796;75;21587;-72
2022/01/04 02:38:11;;;;;;;1.70;0.98;;;11.00;99.90;;;;;;1905053;75;21496;-73
2022/01/04 02:40:37;;;;;;;1.25;0.80;;;11.00;99.90;;;;;;1902858;75;21547;-73
2022/01/04 02:43:03;;;;;;;1.52;0.93;;;11.00;99.90;;;;;;1899885;75;21488;-73
2022/01/04 02:45:29;;;;;;;2.33;0.98;;;11.00;99.90;;;;;;1903895;75;21150;-72
2022/01/04 02:47:55;;;;;;;1.60;1.02;;;11.00;99.90;;;;;;1902375;75;21202;-73
2022/01/04 02:50:21;;;;;;;1.30;0.80;;;11.00;99.90;;;;;;1908251;73;21084;-74
2022/01/04 02:52:48;;;;;;;0.93;0.85;;;10.90;99.90;;;;;;1901271;75;21065;-72
2022/01/04 02:55:14;;;;;;;2.22;0.90;;;10.90;99.90;;;;;;1903387;75;21205;-73
2022/01/04 02:57:40;;;;;;;0.90;0.70;;;11.00;99.90;;;;;;1901716;75;21072;-73
2022/01/04 03:00:06;;;;;;;0.90;0.80;;;10.90;99.90;;;;;;1901604;75;21088;-73
2022/01/04 03:02:32;;;;;;;10.32;1.05;;;10.80;99.90;;;;;;1907284;75;21099;-73
2022/01/04 03:04:58;;;;;;;1.22;0.80;;;10.90;99.90;;;;;;1908605;75;21072;-73
2022/01/04 03:07:25;;;;;;;1.90;0.95;;;10.80;99.90;;;;;;1903291;75;21092;-72
2022/01/04 03:09:51;;;;;;;0.95;0.80;;;10.80;99.90;;;;;;1892449;75;21089;-72
2022/01/04 03:12:17;;;;;;;1.12;0.60;;;10.90;99.90;;;;;;1894856;75;21535;-73
2022/01/04 03:14:43;;;;;;;2.40;0.70;;;10.90;99.90;;;;;;1903340;75;21515;-72
2022/01/04 03:17:09;;;;;;;1.45;1.10;;;11.00;99.90;;;;;;1903352;75;21508;-72
2022/01/04 03:19:35;;;;;;;0.90;0.75;;;11.00;99.90;;;;;;1897360;75;21241;-73
2022/01/04 03:22:01;;;;;;;0.88;0.80;;;11.10;99.90;;;;;;1901624;75;21150;-72
2022/01/04 03:24:28;;;;;;;2.70;1.00;;;11.10;99.90;;;;;;1903250;75;21290;-72
2022/01/04 03:26:54;;;;;;;2.37;1.07;;;11.10;99.90;;;;;;1903200;75;21037;-72
2022/01/04 03:29:20;;;;;;;1.67;0.90;;;11.10;99.90;;;;;;1902623;73;21092;-73
2022/01/04 03:31:46;;;;;;;2.15;0.98;;;11.10;99.90;;;;;;1900825;75;21490;-72
2022/01/04 03:34:12;;;;;;;0.95;0.85;;;11.00;99.90;;;;;;1903313;75;21577;-72
2022/01/04 03:36:38;;;;;;;1.32;0.90;;;10.90;99.90;;;;;;1900581;75;21502;-72
2022/01/04 03:39:05;;;;;;;1.00;0.75;;;11.00;99.90;;;;;;1899737;75;21565;-72
2022/01/04 03:41:32;;;;;;;1.10;0.80;;;11.00;99.90;;;;;;1905144;75;21141;-73
2022/01/04 03:43:58;;;;;;;0.93;0.70;;;10.90;99.90;;;;;;1894436;75;21092;-72
2022/01/04 03:46:24;;;;;;;0.85;0.82;;;10.80;99.90;;;;;;1907262;75;21082;-72
2022/01/04 03:48:50;;;;;;;3.08;1.00;;;10.90;99.90;;;;;;1900530;75;21089;-73
2022/01/04 03:51:16;;;;;;;1.25;1.05;;;10.90;99.90;;;;;;1906088;74;21158;-72
2022/01/04 03:53:42;;;;;;;2.85;0.90;;;10.90;99.90;;;;;;1903211;75;21088;-72
2022/01/04 03:56:13;;;;;;;2.35;1.10;;;10.80;99.90;;;;;;1907723;75;21127;-72
2022/01/04 03:58:39;;;;;;;1.57;0.72;;;11.00;99.90;;;;;;1901858;75;21080;-73
2022/01/04 04:01:05;;;;;;;2.62;1.30;;;11.00;99.90;;;;;;1897205;75;21166;-72
2022/01/04 04:03:32;;;;;;;1.17;1.00;;;11.00;99.90;;;;;;1907511;75;21083;-72
2022/01/04 04:05:58;;;;;;;2.08;0.88;;;11.10;99.90;;;;;;1903216;75;21155;-72
2022/01/04 04:08:24;;;;;;;1.60;1.00;;;11.00;99.90;;;;;;1899662;75;21053;-73
2022/01/04 04:10:50;;;;;;;2.35;0.72;;;11.10;99.90;;;;;;1916248;75;21077;-72
2022/01/04 04:13:16;;;;;;;1.30;1.20;;;11.10;99.90;;;;;;1903047;75;21177;-73
2022/01/04 04:15:43;;;;;;;1.27;0.72;;;11.10;99.90;;;;;;1898054;75;21085;-72
2022/01/04 04:18:09;;;;;;;1.32;1.10;;;11.00;99.90;;;;;;1898642;75;21073;-72
2022/01/04 04:20:36;;;;;;;1.02;1.00;;;10.90;99.90;;;;;;1903552;75;21122;-72
2022/01/04 04:23:02;;;;;;;2.45;0.98;;;11.00;99.90;;;;;;1902080;75;21087;-72
2022/01/04 04:25:28;;;;;;;1.42;0.88;;;10.90;99.90;;;;;;1896220;75;21213;-73
2022/01/04 04:27:54;;;;;;;2.72;1.02;;;11.00;99.90;;;;;;1903197;75;21154;-72
2022/01/04 04:30:20;;;;;;;1.30;0.90;;;10.90;99.90;;;;;;1901356;75;21150;-73
2022/01/04 04:32:47;;;;;;;5.83;0.70;;;10.90;99.90;;;;;;1895839;75;21085;-72
2022/01/04 04:35:13;;;;;;;1.65;0.98;;;10.90;99.90;;;;;;1914635;75;21072;-73
2022/01/04 04:37:39;;;;;;;1.20;1.10;;;10.90;99.90;;;;;;1911564;75;21053;-73
2022/01/04 04:40:05;;;;;;;1.55;1.12;;;10.80;99.90;;;;;;1899329;75;21076;-73
2022/01/04 04:42:32;;;;;;;0.95;0.93;;;10.80;99.90;;;;;;1904491;75;21092;-73
2022/01/04 04:44:58;;;;;;;2.42;1.00;;;10.80;99.90;;;;;;1916510;75;21189;-72
2022/01/04 04:47:24;;;;;;;0.90;0.90;;;10.70;99.90;;;;;;1904390;75;21045;-72
2022/01/04 04:49:50;;;;;;;2.05;1.10;;;10.80;99.90;;;;;;1904361;75;21077;-72
2022/01/04 04:52:16;;;;;;;1.05;0.80;;;10.80;99.90;;;;;;1905211;75;21158;-74
2022/01/04 04:54:42;;;;;;;1.40;0.95;;;10.90;99.90;;;;;;1901075;75;21287;-73
2022/01/04 04:57:08;;;;;;;0.85;0.80;;;10.80;99.90;;;;;;1909117;75;21033;-73
2022/01/04 04:59:34;;;;;;;2.05;0.98;;;10.70;99.90;;;;;;1902428;75;21048;-73
2022/01/04 05:02:01;;;;;;;0.80;0.80;;;10.70;99.90;;;;;;1905063;75;21084;-72
2022/01/04 05:04:27;;;;;;;2.15;0.70;;;10.60;99.90;;;;;;1903651;75;21139;-72
2022/01/04 05:06:53;;;;;;;1.25;0.78;;;10.60;99.90;;;;;;1901258;75;21093;-72
2022/01/04 05:09:20;;;;;;;1.35;0.90;;;10.60;99.90;;;;;;1903391;75;21080;-72
2022/01/04 05:11:46;;;;;;;1.55;0.88;;;10.60;99.90;;;;;;1896168;75;21158;-73
2022/01/04 05:14:12;;;;;;;1.60;0.90;;;10.50;99.90;;;;;;1891822;76;21065;-73
2022/01/04 05:16:38;;;;;;;2.00;0.88;;;10.50;99.90;;;;;;1897966;75;21132;-73
2022/01/04 05:19:04;;;;;;;1.98;0.98;;;10.50;99.90;;;;;;1903301;75;21086;-73
2022/01/04 05:21:30;;;;;;;0.62;0.62;;;10.50;99.90;;;;;;1904342;75;21080;-73
2022/01/04 05:23:57;;;;;;;1.52;0.80;;;10.50;99.90;;;;;;1903365;75;21142;-73
2022/01/04 05:26:23;;;;;;;1.05;0.90;;;10.50;99.90;;;;;;1903948;74;21621;-74
2022/01/04 05:28:49;;;;;;;1.47;1.10;;;10.50;99.90;;;;;;1900737;75;21445;-73
2022/01/04 05:31:15;;;;;;;1.95;0.90;;;10.40;99.90;;;;;;1908297;75;21460;-73
2022/01/04 05:33:41;;;;;;;3.25;1.02;;;10.40;99.90;;;;;;1903404;74;21495;-72
2022/01/04 05:36:07;;;;;;;6.10;1.17;;;10.40;99.90;;;;;;1901544;75;21599;-72
2022/01/04 05:38:33;;;;;;;1.45;1.00;;;10.30;99.90;;;;;;1892956;75;21123;-73
2022/01/04 05:40:59;;;;;;;1.60;1.00;;;10.40;99.90;;;;;;1901900;75;21088;-70
2022/01/04 05:43:26;;;;;;;1.52;1.10;;;10.30;99.90;;;;;;1907557;75;21080;-71
2022/01/04 05:45:52;;;;;;;0.80;0.80;;;10.30;99.90;;;;;;1899204;75;21092;-71
2022/01/04 05:48:20;;;;;;;0.80;0.80;;;10.30;99.90;;;;;;1903519;75;21119;-71
2022/01/04 05:50:46;;;;;;;1.12;1.02;;;10.20;99.90;;;;;;1903388;75;21117;-72
2022/01/04 05:53:12;;;;;;;0.90;0.90;;;10.20;99.90;;;;;;1901294;75;21161;-73
2022/01/04 05:55:38;;;;;;;0.72;0.72;;;10.20;99.90;;;;;;1896632;75;21256;-72
2022/01/04 05:58:04;;;;;;;3.50;1.22;;;10.10;99.90;;;;;;1913009;75;21158;-72
2022/01/04 06:00:30;;;;;;;4.53;1.00;;;10.10;99.90;;;;;;1905414;75;21045;-73
2022/01/04 06:03:00;;;;;;;1.50;0.95;;;10.10;99.90;;;;;;1916187;75;21068;-72
2022/01/04 06:05:24;;;;;;;5.05;0.82;;;10.10;99.90;;;;;;1914941;75;21095;-72
2022/01/04 06:07:50;;;;;;;1.35;1.20;;;10.10;99.90;;;;;;1906480;75;21087;-72
2022/01/04 06:10:16;;;;;;;2.55;1.10;;;10.10;99.90;;;;;;1896337;75;21093;-73
2022/01/04 06:15:10;;;;;;;1.30;1.07;;;10.10;99.90;;;;;;1903280;75;21097;-73
2022/01/04 06:17:38;;;;;;;1.85;0.90;;;10.10;99.90;;;;;;1903246;75;21153;-72
2022/01/04 06:20:04;;;;;;;2.33;1.27;;;10.00;99.90;;;;;;1897836;75;21516;-72
2022/01/04 06:22:30;;;;;;;2.10;1.17;;;10.10;99.90;;;;;;1911569;75;21119;-71
2022/01/04 06:24:57;;;;;;;2.05;1.27;;;10.10;99.90;;;;;;1901411;75;21162;-72
2022/01/04 06:27:23;;;;;;;1.02;0.93;;;10.10;99.90;;;;;;1901255;75;21158;-72
2022/01/04 06:29:49;;;;;;;1.15;0.90;;;10.10;99.90;;;;;;1900078;75;21150;-72
2022/01/04 06:32:15;;;;;;;4.72;1.10;;;10.20;99.90;;;;;;1905714;75;21159;-72
2022/01/04 06:34:41;;;;;;;1.27;0.90;;;10.20;99.90;;;;;;1906959;75;21088;-72
2022/01/04 06:37:08;;;;;;;1.72;0.98;;;10.10;99.90;;;;;;1906499;75;21108;-72
2022/01/04 06:39:34;;;;;;;1.90;0.72;;;10.20;99.90;;;;;;1898522;75;21096;-72
2022/01/04 06:42:00;;;;;;;1.12;0.98;;;10.20;99.90;;;;;;1900164;75;21550;-71
2022/01/04 06:44:26;;;;;;;0.90;0.88;;;10.20;99.90;;;;;;1891678;76;21041;-71
2022/01/04 06:46:52;;;;;;;2.37;0.90;;;10.20;99.90;;;;;;1901773;75;21080;-71
2022/01/04 06:49:18;;;;;;;1.35;0.95;;;10.30;99.90;;;;;;1903313;75;21124;-72
2022/01/04 06:51:44;;;;;;;1.00;0.60;;;10.30;99.90;;;;;;1898913;75;21081;-72
2022/01/04 06:54:11;;;;;;;1.70;0.82;;;10.40;99.90;;;;;;1896137;75;21509;-72
2022/01/04 06:56:37;;;;;;;2.58;0.68;;;10.30;99.90;;;;;;1905178;75;21524;-73
2022/01/04 06:59:03;;;;;;;2.80;0.90;;;10.50;99.90;;;;;;1903203;75;21517;-73
2022/01/04 07:01:29;;;;;;;1.35;0.85;;;10.40;99.90;;;;;;1893232;75;21558;-75
2022/01/04 07:03:55;;;;;;;0.98;0.70;;;10.50;99.90;;;;;;1898550;75;21156;-75
2022/01/04 07:06:22;;;;;;;0.85;0.70;;;10.50;99.90;;;;;;1906935;75;21083;-74
2022/01/04 07:08:48;;;;;;;1.37;0.85;;;10.50;99.90;;;;;;1905416;75;21092;-74
2022/01/04 07:11:14;;;;;;;1.05;0.68;;;10.50;99.90;;;;;;1899895;75;21161;-74
2022/01/04 07:13:40;;;;;;;0.98;0.88;;;10.60;99.90;;;;;;1899235;75;21465;-75
2022/01/04 07:16:06;;;;;;;2.62;0.60;;;10.60;99.90;;;;;;1898469;75;21507;-74
2022/01/04 07:18:32;;;;;;;1.02;0.60;;;10.60;99.90;;;;;;1901792;75;21496;-75
2022/01/04 07:20:58;;;;;;;1.00;0.72;;;10.70;99.90;;;;;;1902342;75;21480;-75
2022/01/04 07:23:25;;;;;;;5.55;0.80;;;10.70;99.90;;;;;;1903039;75;21231;-74
2022/01/04 07:25:51;;;;;;;1.15;0.70;;;10.80;99.90;;;;;;1902085;75;21080;-74
2022/01/04 07:28:17;;;;;;;1.00;0.55;;;10.80;99.90;;;;;;1898219;75;21181;-72
2022/01/04 07:30:44;;;;;;;1.00;0.55;;;10.80;99.90;;;;;;1906620;75;21169;-74
2022/01/04 07:33:10;;;;;;;2.05;0.78;;;10.70;99.90;;;;;;1900301;75;21115;-73
2022/01/04 07:35:36;;;;;;;0.78;0.60;;;10.80;99.90;;;;;;1904166;75;21069;-74
2022/01/04 07:38:02;;;;;;;2.05;0.72;;;10.70;99.90;;;;;;1901047;75;21097;-76
2022/01/04 07:40:30;;;;;;;1.22;0.78;;;10.70;99.90;;;;;;1900284;75;21092;-75
2022/01/04 07:42:59;;;;;;;6.20;0.70;;;10.80;99.90;;;;;;1907646;75;21087;-77
2022/01/04 07:45:24;;;;;;;0.55;0.50;;;10.90;99.90;;;;;;1899050;75;21602;-76
2022/01/04 07:47:50;;;;;;;0.78;0.62;;;10.90;99.90;;;;;;1903323;75;21161;-77
2022/01/04 07:50:17;;;;;;;3.42;0.85;;;10.90;99.90;;;;;;1901003;75;21173;-75
2022/01/04 07:52:45;;;;;;;0.60;0.50;;;11.00;99.90;;;;;;1903398;75;21165;-76
2022/01/04 07:55:11;;;;;;;0.50;0.50;;;11.10;99.90;;;;;;1904974;75;21106;-76
2022/01/04 07:57:39;;;;;;;1.72;0.53;;;11.10;99.90;;;;;;1911577;73;21056;-75
2022/01/04 08:00:05;;;;;;;1.65;0.70;;;11.00;99.90;;;;;;1899231;74;21117;-75
2022/01/04 08:02:31;;;;;;;1.05;0.78;;;11.00;99.90;;;;;;1900244;75;21158;-77
2022/01/04 08:04:57;;;;;;;1.45;0.80;;;11.00;99.90;;;;;;1914225;75;21134;-77
2022/01/04 08:07:23;;;;;;;1.37;0.60;;;11.00;99.90;;;;;;1904822;75;21052;-77
2022/01/04 08:09:49;;;;;;;0.93;0.60;;;11.00;99.90;;;;;;1912162;75;21157;-82
2022/01/04 08:12:17;;;;;;;1.17;0.80;;;11.10;99.90;;;;;;1904218;75;21048;-75
2022/01/04 08:14:44;;;;;;;6.80;0.60;;;11.00;99.90;;;;;;1903324;75;21495;-76
2022/01/04 08:17:11;;;;;;;0.60;0.50;;;11.10;99.90;;;;;;1911614;75;21243;-75
2022/01/04 08:19:37;;;;;;;1.17;0.60;;;11.10;99.90;;;;;;1905335;75;21084;-75
2022/01/04 08:22:03;;;;;;;0.60;0.60;;;11.20;99.90;;;;;;1902623;75;21080;-72
2022/01/04 08:24:29;;;;;;;0.40;0.40;;;11.20;99.90;;;;;;1915831;75;21135;-72
2022/01/04 08:26:55;;;;;;;0.57;0.57;;;11.30;99.90;;;;;;1906756;75;21049;-72
2022/01/04 08:29:21;;;;;;;1.32;0.62;;;11.30;99.90;;;;;;1896894;75;21166;-73
2022/01/04 08:31:49;;;;;;;2.30;0.90;;;11.30;99.90;;;;;;1906167;75;21190;-77
2022/01/04 08:34:15;;;;;;;2.90;1.05;;;11.40;99.90;;;;;;1901681;75;21183;-77
2022/01/04 08:36:41;;;;;;;1.85;0.95;;;11.40;99.90;;;;;;1894772;74;21126;-80
2022/01/04 08:39:14;;;;;;;1.52;0.70;;;11.40;99.90;;;;;;1898643;75;21147;-77
2022/01/04 08:41:36;;;;;;;1.35;0.75;;;11.50;99.90;;;;;;1899674;75;21174;-78
2022/01/04 08:44:03;;;;;;;1.57;0.80;;;11.50;99.90;;;;;;1901619;75;21543;-77
2022/01/04 08:46:32;;;;;;;1.45;0.70;;;11.60;99.90;;;;;;1903959;75;21254;-77
2022/01/04 08:48:58;;;;;;;1.20;0.70;;;11.70;99.90;;;;;;1900784;75;21253;-77
2022/01/04 08:51:24;;;;;;;10.18;0.90;;;11.70;99.90;;;;;;1906520;75;21154;-77
2022/01/04 08:53:50;;;;;;;1.10;0.78;;;11.80;99.90;;;;;;1897529;75;21178;-77
2022/01/04 08:56:17;;;;;;;1.60;0.72;;;11.80;99.90;;;;;;1898830;75;21057;-77
2022/01/04 08:58:43;;;;;;;1.75;0.80;;;11.80;99.90;;;;;;1901153;75;21100;-78
2022/01/04 09:01:09;;;;;;;1.47;0.65;;;11.80;99.90;;;;;;1902939;75;21124;-78
2022/01/04 09:03:35;;;;;;;1.12;0.80;;;11.80;99.90;;;;;;1903242;75;21091;-78
2022/01/04 09:06:01;;;;;;;1.70;0.60;;;11.80;99.90;;;;;;1911056;75;21222;-77
2022/01/04 09:08:28;;;;;;;1.07;0.80;;;11.80;99.90;;;;;;1897250;75;21105;-77
2022/01/04 09:10:54;;;;;;;1.92;0.98;;;11.90;99.90;;;;;;1916072;74;21091;-78
2022/01/04 09:13:22;;;;;;;1.55;1.02;;;11.90;99.90;;;;;;1907371;75;21104;-80
2022/01/04 09:18:43;;;;;;;1.65;0.98;;;11.90;99.90;;;;;;1899443;75;21220;-79
2022/01/04 09:21:09;;;;;;;1.95;1.05;;;11.90;99.90;;;;;;1916122;75;21049;-80
2022/01/04 09:23:38;;;;;;;1.30;0.90;;;11.90;99.90;;;;;;1899822;75;21092;-79
2022/01/04 09:26:03;;;;;;;1.90;0.72;;;11.90;99.90;;;;;;1894717;75;21183;-79
2022/01/04 09:28:29;;;;;;;1.02;0.60;;;12.00;99.90;;;;;;1898942;75;21283;-77
2022/01/04 09:30:57;;;;;;;2.47;1.02;;;12.10;99.90;;;;;;1901383;75;21053;-79
2022/01/04 09:33:23;;;;;;;1.42;0.80;;;12.50;99.90;;;;;;1899002;75;21469;-81
2022/01/04 09:35:49;;;;;;;0.78;0.78;;;12.80;99.90;;;;;;1903328;75;21609;-81
2022/01/04 09:38:16;;;;;;;0.78;0.78;;;12.80;99.90;;;;;;1903647;75;21554;-79
2022/01/04 09:40:42;;;;;;;0.80;0.80;;;12.90;99.90;;;;;;1899210;75;21092;-81
2022/01/04 09:43:08;;;;;;;0.95;0.72;;;12.90;99.90;;;;;;1903474;75;21057;-78
2022/01/04 09:45:34;;;;;;;0.82;0.60;;;13.00;99.90;;;;;;1902909;75;21185;-79
2022/01/04 09:48:00;;;;;;;1.27;0.80;;;13.00;99.90;;;;;;1904687;75;21080;-80
2022/01/04 09:50:26;;;;;;;1.85;0.85;;;12.90;99.90;;;;;;1899034;75;21089;-79
2022/01/04 09:52:53;;;;;;;3.12;1.40;;;12.90;99.90;;;;;;1903814;75;21150;-78
2022/01/04 09:55:19;;;;;;;2.33;1.20;;;12.70;99.90;;;;;;1899003;74;21616;-77
2022/01/04 09:57:45;;;;;;;6.22;0.93;;;12.60;99.90;;;;;;1899656;75;21484;-77
2022/01/04 10:00:14;;;;;;;0.98;0.85;;;12.50;99.90;;;;;;1901627;75;21492;-78
2022/01/04 10:02:39;;;;;;;2.15;1.60;;;12.50;99.90;;;;;;1906848;75;21124;-79
2022/01/04 10:05:05;;;;;;;2.35;0.78;;;12.40;99.90;;;;;;1905764;75;21084;-78
2022/01/04 10:07:31;;;;;;;2.58;1.17;;;12.50;99.90;;;;;;1893982;75;21163;-77
2022/01/04 10:09:57;;;;;;;0.68;0.55;;;12.70;99.90;;;;;;1900517;75;21054;-77
2022/01/04 10:12:23;;;;;;;1.95;0.82;;;12.70;99.90;;;;;;1896726;75;21092;-77
2022/01/04 10:14:50;;;;;;;1.57;0.88;;;12.80;99.90;;;;;;1880802;75;21600;-78
2022/01/04 10:17:16;;;;;;;1.80;0.93;;;12.90;99.90;;;;;;1902491;75;21433;-78
2022/01/04 10:19:42;;;;;;;1.15;0.90;;;12.80;99.90;;;;;;1903618;75;21461;-78
2022/01/04 10:22:08;;;;;;;3.42;0.90;;;13.00;99.90;;;;;;1903374;75;21464;-78
2022/01/04 10:24:34;;;;;;;3.08;0.88;;;13.10;99.90;;;;;;1901693;75;21538;-78
2022/01/04 10:27:00;;;;;;;1.52;0.80;;;13.20;99.90;;;;;;1903729;75;21158;-77
2022/01/04 10:29:26;;;;;;;3.95;0.85;;;13.20;99.90;;;;;;1902347;75;21049;-80
2022/01/04 10:31:52;;;;;;;0.93;0.80;;;13.30;99.90;;;;;;1896110;75;21219;-78
2022/01/04 10:34:19;;;;;;;0.85;0.70;;;13.30;99.90;;;;;;1907898;75;21206;-81
2022/01/04 10:36:46;;;;;;;1.75;1.10;;;13.40;99.90;;;;;;1903876;75;21154;-79
2022/01/04 10:39:13;;;;;;;6.08;0.75;;;13.50;99.90;;;;;;1901719;75;21108;-80
2022/01/04 10:41:39;;;;;;;3.80;0.93;;;13.50;99.90;;;;;;1896367;75;21229;-80
2022/01/04 10:44:06;;;;;;;0.80;0.80;;;13.50;99.90;;;;;;1912177;75;21080;-79
2022/01/04 10:46:32;;;;;;;2.12;1.05;;;13.50;99.90;;;;;;1902892;75;21104;-80
2022/01/04 10:49:00;;;;;;;2.85;1.07;;;13.50;99.90;;;;;;1905122;75;21123;-81
2022/01/04 10:51:26;;;;;;;1.92;0.80;;;13.60;99.90;;;;;;1898024;75;21088;-84
2022/01/04 10:53:52;;;;;;;2.55;0.90;;;13.50;99.90;;;;;;1899620;75;21165;-82
2022/01/04 10:56:18;;;;;;;2.95;1.35;;;13.50;99.90;;;;;;1901123;75;21512;-85
2022/01/04 10:58:44;;;;;;;0.70;0.70;;;13.60;99.90;;;;;;1900728;74;21418;-80
2022/01/04 11:01:10;;;;;;;1.02;0.78;;;13.60;99.90;;;;;;1905644;75;21597;-81
2022/01/04 11:03:36;;;;;;;1.15;0.90;;;13.60;99.90;;;;;;1903902;75;21575;-80
2022/01/04 11:06:03;;;;;;;1.72;1.00;;;13.50;99.90;;;;;;1895794;75;21452;-80
2022/01/04 11:08:29;;;;;;;2.90;1.17;;;13.50;99.90;;;;;;1899765;75;21045;-82
2022/01/04 11:10:55;;;;;;;1.52;1.00;;;13.50;99.90;;;;;;1904578;75;21066;-84
2022/01/04 11:13:23;;;;;;;3.67;1.15;;;13.50;99.90;;;;;;1899071;75;21182;-86
2022/01/04 11:15:49;;;;;;;1.50;0.88;;;13.40;99.90;;;;;;1907710;75;21203;-82
2022/01/04 11:18:15;;;;;;;1.32;0.70;;;13.50;99.90;;;;;;1895406;75;21157;-85
2022/01/04 11:20:41;;;;;;;1.12;0.90;;;13.40;99.90;;;;;;1899589;75;21517;-85
2022/01/04 11:23:08;;;;;;;1.30;0.70;;;13.40;99.90;;;;;;1899636;75;21084;-82
2022/01/04 11:25:34;;;;;;;1.17;0.82;;;13.50;99.90;;;;;;1904270;75;21154;-84
2022/01/04 11:28:01;;;;;;;1.87;1.02;;;13.60;99.90;;;;;;1900181;75;21477;-84
2022/01/04 11:30:27;;;;;;;2.67;1.02;;;13.70;99.90;;;;;;1908599;73;21088;-83
2022/01/04 11:32:54;;;;;;;2.25;1.12;;;13.80;99.90;;;;;;1908259;75;21151;-84
2022/01/04 11:35:21;;;;;;;2.50;0.72;;;13.70;99.90;;;;;;1913226;75;21155;-82
2022/01/04 11:37:48;;;;;;;0.93;0.62;;;13.80;99.90;;;;;;1897219;75;21154;-82
2022/01/04 11:40:14;;;;;;;3.05;1.20;;;13.70;99.90;;;;;;1894338;75;21080;-81
2022/01/04 11:42:40;;;;;;;3.37;1.10;;;13.70;99.90;;;;;;1907108;75;21151;-79
2022/01/04 11:45:07;;;;;;;2.80;1.00;;;13.70;99.90;;;;;;1907546;75;21162;-84
2022/01/04 11:47:36;;;;;;;2.33;1.10;;;13.60;99.90;;;;;;1905892;75;21104;-83
2022/01/04 11:50:03;;;;;;;1.42;1.00;;;13.60;99.90;;;;;;1898943;75;21096;-83
2022/01/04 11:52:29;;;;;;;7.00;0.70;;;13.60;99.90;;;;;;1903806;74;21131;-85
2022/01/04 11:55:03;;;;;;;1.60;1.07;;;13.50;99.90;;;;;;1912195;75;21088;-83
2022/01/04 11:57:23;;;;;;;0.85;0.85;;;13.30;99.90;;;;;;1896774;75;21125;-86
2022/01/04 11:59:50;;;;;;;3.62;1.37;;;13.30;99.90;;;;;;1906260;75;21632;-88
2022/01/04 12:02:16;;;;;;;4.12;1.02;;;13.20;99.90;;;;;;1893754;75;21414;-88
2022/01/04 12:04:42;;;;;;;1.12;0.90;;;13.10;99.90;;;;;;1896395;75;21481;-80
2022/01/04 12:07:08;;;;;;;7.53;1.07;;;13.20;99.90;;;;;;1896788;74;21488;-80
2022/01/04 12:09:34;;;;;;;2.50;1.20;;;13.20;99.90;;;;;;1907820;75;21504;-79
2022/01/04 12:12:00;;;;;;;1.57;0.70;;;13.10;99.90;;;;;;1892929;75;21518;-81
2022/01/04 12:14:31;;;;;;;1.82;1.27;;;13.10;99.90;;;;;;1904508;75;21498;-78
2022/01/04 12:16:57;;;;;;;1.52;1.22;;;13.10;99.90;;;;;;1903596;75;21125;-78
2022/01/04 12:19:23;;;;;;;1.70;0.98;;;13.10;99.90;;;;;;1902572;75;21076;-78
2022/01/04 12:21:49;;;;;;;3.20;1.10;;;13.00;99.90;;;;;;1900212;75;21116;-77
2022/01/04 12:24:16;;;;;;;5.12;1.10;;;13.00;99.90;;;;;;1904650;75;21171;-78
2022/01/04 12:26:42;;;;;;;2.47;1.50;;;13.00;99.90;;;;;;1901468;75;21076;-78
2022/01/04 12:29:08;;;;;;;2.65;1.10;;;12.90;99.90;;;;;;1906341;75;21453;-77
2022/01/04 12:31:35;;;;;;;3.17;1.40;;;12.90;99.90;;;;;;1900571;75;21538;-77
2022/01/04 12:34:01;;;;;;;2.87;1.57;;;12.80;99.90;;;;;;1910067;75;21087;-78
2022/01/04 12:36:27;;;;;;;3.60;1.47;;;12.80;99.90;;;;;;1910654;75;21072;-78
2022/01/04 12:38:54;;;;;;;2.70;1.57;;;12.90;99.90;;;;;;1911615;75;21049;-77
2022/01/04 12:41:21;;;;;;;2.22;1.02;;;12.90;99.90;;;;;;1907504;75;21080;-78
2022/01/04 12:43:49;;;;;;;1.85;1.10;;;13.00;99.90;;;;;;1901111;75;21240;-78
2022/01/04 12:46:15;;;;;;;2.08;1.32;;;13.00;99.90;;;;;;1910138;75;21508;-78
2022/01/04 12:48:41;;;;;;;1.30;1.20;;;13.00;99.90;;;;;;1904509;75;21575;-78
2022/01/04 12:51:07;;;;;;;4.42;0.95;;;13.00;99.90;;;;;;1911359;75;21508;-77
2022/01/04 12:53:33;;;;;;;7.10;1.32;;;12.90;99.90;;;;;;1908061;75;21550;-77